sensor_id;sensor_type;location;lat;lon;timestamp;P1;durP1;ratioP1;P2;durP2;ratioP2
57301;SDS011;43149;50.974;18.224;2022-11-20T00:08:29;64.70;;;25.00;;
57301;SDS011;43149;50.974;18.224;2022-11-20T00:25:29;63.20;;;34.80;;
57301;SDS011;43149;50.974;18.224;2022-11-20T00:35:11;72.30;;;36.20;;
57301;SDS011;43149;50.974;18.224;2022-11-20T00:44:58;104.70;;;41.60;;
57301;SDS011;43149;50.974;18.224;2022-11-20T00:54:41;89.10;;;43.80;;
57301;SDS011;43149;50.974;18.224;2022-11-20T01:04:24;84.70;;;42.80;;
57301;SDS011;43149;50.974;18.224;2022-11-20T01:14:12;38.00;;;16.00;;
57301;SDS011;43149;50.974;18.224;2022-11-20T01:23:59;57.20;;;29.00;;
57301;SDS011;43149;50.974;18.224;2022-11-20T01:33:46;87.10;;;35.10;;
57301;SDS011;43149;50.974;18.224;2022-11-20T01:43:31;57.70;;;29.70;;
57301;SDS011;43149;50.974;18.224;2022-11-20T01:54:00;76.40;;;39.00;;
57301;SDS011;43149;50.974;18.224;2022-11-20T02:03:49;87.50;;;41.70;;
57301;SDS011;43149;50.974;18.224;2022-11-20T02:13:34;83.70;;;36.40;;
57301;SDS011;43149;50.974;18.224;2022-11-20T02:33:39;88.60;;;39.70;;
57301;SDS011;43149;50.974;18.224;2022-11-20T02:43:24;69.20;;;38.90;;
57301;SDS011;43149;50.974;18.224;2022-11-20T02:53:08;71.80;;;38.00;;
57301;SDS011;43149;50.974;18.224;2022-11-20T03:02:51;94.70;;;44.00;;
57301;SDS011;43149;50.974;18.224;2022-11-20T03:12:35;92.70;;;42.40;;
57301;SDS011;43149;50.974;18.224;2022-11-20T03:22:18;86.40;;;38.50;;
57301;SDS011;43149;50.974;18.224;2022-11-20T03:39:18;79.20;;;44.00;;
57301;SDS011;43149;50.974;18.224;2022-11-20T03:49:02;117.40;;;45.50;;
57301;SDS011;43149;50.974;18.224;2022-11-20T03:58:49;114.70;;;47.20;;
57301;SDS011;43149;50.974;18.224;2022-11-20T04:08:39;78.50;;;39.10;;
57301;SDS011;43149;50.974;18.224;2022-11-20T04:18:26;95.50;;;47.90;;
57301;SDS011;43149;50.974;18.224;2022-11-20T04:28:09;97.80;;;43.70;;
57301;SDS011;43149;50.974;18.224;2022-11-20T04:37:53;115.40;;;48.80;;
57301;SDS011;43149;50.974;18.224;2022-11-20T04:47:36;138.60;;;62.10;;
57301;SDS011;43149;50.974;18.224;2022-11-20T04:57:19;122.60;;;57.30;;
57301;SDS011;43149;50.974;18.224;2022-11-20T05:07:03;127.30;;;60.80;;
57301;SDS011;43149;50.974;18.224;2022-11-20T05:16:46;101.50;;;53.20;;
57301;SDS011;43149;50.974;18.224;2022-11-20T05:26:30;149.80;;;67.80;;
57301;SDS011;43149;50.974;18.224;2022-11-20T05:36:14;141.20;;;68.20;;
57301;SDS011;43149;50.974;18.224;2022-11-20T05:46:00;155.00;;;71.40;;
57301;SDS011;43149;50.974;18.224;2022-11-20T05:55:44;158.90;;;63.00;;
57301;SDS011;43149;50.974;18.224;2022-11-20T06:05:29;148.20;;;70.20;;
57301;SDS011;43149;50.974;18.224;2022-11-20T06:15:12;150.90;;;69.80;;
57301;SDS011;43149;50.974;18.224;2022-11-20T06:24:57;178.10;;;79.30;;
57301;SDS011;43149;50.974;18.224;2022-11-20T06:34:41;171.90;;;70.90;;
57301;SDS011;43149;50.974;18.224;2022-11-20T06:44:24;149.80;;;71.90;;
57301;SDS011;43149;50.974;18.224;2022-11-20T06:54:07;166.70;;;72.60;;
57301;SDS011;43149;50.974;18.224;2022-11-20T07:03:55;134.80;;;64.60;;
57301;SDS011;43149;50.974;18.224;2022-11-20T07:13:39;133.40;;;70.60;;
57301;SDS011;43149;50.974;18.224;2022-11-20T07:38:09;182.80;;;72.20;;
57301;SDS011;43149;50.974;18.224;2022-11-20T07:47:52;87.80;;;39.20;;
57301;SDS011;43149;50.974;18.224;2022-11-20T07:57:37;180.20;;;80.60;;
57301;SDS011;43149;50.974;18.224;2022-11-20T08:07:22;181.20;;;74.50;;
57301;SDS011;43149;50.974;18.224;2022-11-20T08:17:29;149.10;;;58.60;;
57301;SDS011;43149;50.974;18.224;2022-11-20T08:27:11;155.40;;;55.50;;
57301;SDS011;43149;50.974;18.224;2022-11-20T08:36:56;85.30;;;44.00;;
57301;SDS011;43149;50.974;18.224;2022-11-20T08:46:39;153.60;;;66.40;;
57301;SDS011;43149;50.974;18.224;2022-11-20T08:56:25;125.30;;;48.80;;
57301;SDS011;43149;50.974;18.224;2022-11-20T09:06:11;96.90;;;45.40;;
57301;SDS011;43149;50.974;18.224;2022-11-20T09:16:00;106.20;;;38.70;;
57301;SDS011;43149;50.974;18.224;2022-11-20T09:25:53;106.80;;;41.50;;
57301;SDS011;43149;50.974;18.224;2022-11-20T09:43:01;95.50;;;39.00;;
57301;SDS011;43149;50.974;18.224;2022-11-20T10:34:29;20.50;;;10.20;;
57301;SDS011;43149;50.974;18.224;2022-11-20T10:44:49;34.90;;;13.60;;
57301;SDS011;43149;50.974;18.224;2022-11-20T10:54:54;83.70;;;29.40;;
57301;SDS011;43149;50.974;18.224;2022-11-20T11:15:37;42.90;;;19.10;;
57301;SDS011;43149;50.974;18.224;2022-11-20T11:35:21;17.20;;;9.60;;
57301;SDS011;43149;50.974;18.224;2022-11-20T11:57:46;71.60;;;33.90;;
57301;SDS011;43149;50.974;18.224;2022-11-20T12:18:18;68.40;;;26.70;;
57301;SDS011;43149;50.974;18.224;2022-11-20T12:28:19;75.00;;;26.30;;
57301;SDS011;43149;50.974;18.224;2022-11-20T12:38:45;51.60;;;19.90;;
57301;SDS011;43149;50.974;18.224;2022-11-20T13:00:42;48.90;;;19.60;;
57301;SDS011;43149;50.974;18.224;2022-11-20T13:10:55;31.90;;;12.20;;
57301;SDS011;43149;50.974;18.224;2022-11-20T13:21:20;39.20;;;14.50;;
57301;SDS011;43149;50.974;18.224;2022-11-20T13:31:23;37.10;;;15.30;;
57301;SDS011;43149;50.974;18.224;2022-11-20T14:06:49;79.20;;;23.60;;
57301;SDS011;43149;50.974;18.224;2022-11-20T14:16:50;49.30;;;17.70;;
57301;SDS011;43149;50.974;18.224;2022-11-20T14:26:46;56.00;;;18.40;;
57301;SDS011;43149;50.974;18.224;2022-11-20T14:36:45;37.30;;;16.40;;
57301;SDS011;43149;50.974;18.224;2022-11-20T14:46:42;137.90;;;46.00;;
57301;SDS011;43149;50.974;18.224;2022-11-20T14:56:37;103.10;;;39.70;;
57301;SDS011;43149;50.974;18.224;2022-11-20T15:06:32;127.60;;;48.60;;
57301;SDS011;43149;50.974;18.224;2022-11-20T15:16:21;95.10;;;43.60;;
57301;SDS011;43149;50.974;18.224;2022-11-20T15:26:08;46.40;;;24.40;;
57301;SDS011;43149;50.974;18.224;2022-11-20T15:36:02;87.70;;;31.50;;
57301;SDS011;43149;50.974;18.224;2022-11-20T15:45:49;128.70;;;53.30;;
57301;SDS011;43149;50.974;18.224;2022-11-20T15:56:05;98.70;;;38.80;;
57301;SDS011;43149;50.974;18.224;2022-11-20T16:05:49;109.90;;;46.50;;
57301;SDS011;43149;50.974;18.224;2022-11-20T16:15:59;71.70;;;27.10;;
57301;SDS011;43149;50.974;18.224;2022-11-20T16:25:47;158.60;;;61.60;;
57301;SDS011;43149;50.974;18.224;2022-11-20T16:35:34;120.50;;;49.20;;
57301;SDS011;43149;50.974;18.224;2022-11-20T16:45:18;119.30;;;45.90;;
57301;SDS011;43149;50.974;18.224;2022-11-20T16:55:04;158.00;;;72.30;;
57301;SDS011;43149;50.974;18.224;2022-11-20T17:04:51;206.50;;;96.60;;
57301;SDS011;43149;50.974;18.224;2022-11-20T17:14:35;136.70;;;52.00;;
57301;SDS011;43149;50.974;18.224;2022-11-20T17:24:20;111.20;;;42.80;;
57301;SDS011;43149;50.974;18.224;2022-11-20T17:34:12;126.70;;;45.60;;
57301;SDS011;43149;50.974;18.224;2022-11-20T17:43:59;26.30;;;15.60;;
57301;SDS011;43149;50.974;18.224;2022-11-20T17:53:46;95.70;;;28.30;;
57301;SDS011;43149;50.974;18.224;2022-11-20T18:03:57;120.50;;;44.00;;
57301;SDS011;43149;50.974;18.224;2022-11-20T18:13:44;134.50;;;48.00;;
57301;SDS011;43149;50.974;18.224;2022-11-20T18:23:53;47.90;;;20.20;;
57301;SDS011;43149;50.974;18.224;2022-11-20T18:33:38;62.10;;;25.70;;
57301;SDS011;43149;50.974;18.224;2022-11-20T18:43:26;64.50;;;13.20;;
57301;SDS011;43149;50.974;18.224;2022-11-20T18:53:30;94.60;;;38.30;;
57301;SDS011;43149;50.974;18.224;2022-11-20T19:03:12;79.90;;;32.20;;
57301;SDS011;43149;50.974;18.224;2022-11-20T19:12:55;84.30;;;37.50;;
57301;SDS011;43149;50.974;18.224;2022-11-20T19:22:39;109.60;;;40.10;;
57301;SDS011;43149;50.974;18.224;2022-11-20T19:32:27;62.80;;;25.90;;
57301;SDS011;43149;50.974;18.224;2022-11-20T19:42:10;50.20;;;19.30;;
57301;SDS011;43149;50.974;18.224;2022-11-20T19:51:55;77.40;;;34.60;;
57301;SDS011;43149;50.974;18.224;2022-11-20T20:01:39;83.10;;;36.60;;
57301;SDS011;43149;50.974;18.224;2022-11-20T20:11:25;77.40;;;37.90;;
57301;SDS011;43149;50.974;18.224;2022-11-20T20:21:15;56.70;;;28.60;;
57301;SDS011;43149;50.974;18.224;2022-11-20T20:31:08;94.60;;;36.40;;
57301;SDS011;43149;50.974;18.224;2022-11-20T20:40:53;74.60;;;28.10;;
57301;SDS011;43149;50.974;18.224;2022-11-20T20:50:40;90.30;;;35.30;;
57301;SDS011;43149;50.974;18.224;2022-11-20T21:00:26;79.10;;;28.10;;
57301;SDS011;43149;50.974;18.224;2022-11-20T21:10:28;76.50;;;31.80;;
57301;SDS011;43149;50.974;18.224;2022-11-20T21:20:13;49.20;;;21.40;;
57301;SDS011;43149;50.974;18.224;2022-11-20T21:30:15;102.20;;;32.10;;
57301;SDS011;43149;50.974;18.224;2022-11-20T21:39:58;73.70;;;26.50;;
57301;SDS011;43149;50.974;18.224;2022-11-20T21:49:43;82.80;;;30.80;;
57301;SDS011;43149;50.974;18.224;2022-11-20T21:59:26;51.70;;;25.50;;
57301;SDS011;43149;50.974;18.224;2022-11-20T22:09:09;97.00;;;34.80;;
57301;SDS011;43149;50.974;18.224;2022-11-20T22:19:10;141.40;;;48.90;;
57301;SDS011;43149;50.974;18.224;2022-11-20T22:28:56;146.60;;;52.20;;
57301;SDS011;43149;50.974;18.224;2022-11-20T22:38:41;130.70;;;52.50;;
57301;SDS011;43149;50.974;18.224;2022-11-20T22:48:49;149.20;;;57.00;;
57301;SDS011;43149;50.974;18.224;2022-11-20T22:58:37;90.50;;;36.30;;
57301;SDS011;43149;50.974;18.224;2022-11-20T23:23:29;106.90;;;47.00;;
57301;SDS011;43149;50.974;18.224;2022-11-20T23:33:15;120.60;;;51.30;;
57301;SDS011;43149;50.974;18.224;2022-11-20T23:42:59;105.40;;;47.80;;
57301;SDS011;43149;50.974;18.224;2022-11-20T23:53:01;64.30;;;31.90;;
